sensor_id;sensor_type;location;lat;lon;timestamp;P1;durP1;ratioP1;P2;durP2;ratioP2
4430;SDS011;2228;48.140;11.488;2023-05-23T00:01:39;13.60;;;11.27;;
4430;SDS011;2228;48.140;11.488;2023-05-23T00:04:07;15.13;;;11.40;;
4430;SDS011;2228;48.140;11.488;2023-05-23T00:06:34;15.75;;;12.10;;
4430;SDS011;2228;48.140;11.488;2023-05-23T00:09:03;14.02;;;11.23;;
4430;SDS011;2228;48.140;11.488;2023-05-23T00:11:29;14.40;;;10.98;;
4430;SDS011;2228;48.140;11.488;2023-05-23T00:13:58;17.90;;;11.60;;
4430;SDS011;2228;48.140;11.488;2023-05-23T00:16:26;21.40;;;11.88;;
4430;SDS011;2228;48.140;11.488;2023-05-23T00:18:53;15.15;;;11.23;;
4430;SDS011;2228;48.140;11.488;2023-05-23T00:21:21;15.98;;;12.02;;
4430;SDS011;2228;48.140;11.488;2023-05-23T00:23:49;15.63;;;11.63;;
4430;SDS011;2228;48.140;11.488;2023-05-23T00:26:17;18.08;;;11.55;;
4430;SDS011;2228;48.140;11.488;2023-05-23T00:28:45;14.00;;;10.70;;
4430;SDS011;2228;48.140;11.488;2023-05-23T00:31:14;20.67;;;11.57;;
4430;SDS011;2228;48.140;11.488;2023-05-23T00:33:41;14.88;;;10.75;;
4430;SDS011;2228;48.140;11.488;2023-05-23T00:36:08;17.38;;;11.38;;
4430;SDS011;2228;48.140;11.488;2023-05-23T00:38:35;15.65;;;10.63;;
4430;SDS011;2228;48.140;11.488;2023-05-23T00:41:03;15.27;;;10.40;;
4430;SDS011;2228;48.140;11.488;2023-05-23T00:43:30;14.70;;;10.40;;
4430;SDS011;2228;48.140;11.488;2023-05-23T00:45:57;14.68;;;10.48;;
4430;SDS011;2228;48.140;11.488;2023-05-23T00:48:28;15.50;;;10.17;;
4430;SDS011;2228;48.140;11.488;2023-05-23T00:50:55;14.40;;;10.32;;
4430;SDS011;2228;48.140;11.488;2023-05-23T00:53:22;15.43;;;11.67;;
4430;SDS011;2228;48.140;11.488;2023-05-23T00:55:50;14.70;;;10.90;;
4430;SDS011;2228;48.140;11.488;2023-05-23T00:58:17;16.85;;;10.75;;
4430;SDS011;2228;48.140;11.488;2023-05-23T01:00:44;13.25;;;10.55;;
4430;SDS011;2228;48.140;11.488;2023-05-23T01:03:12;14.88;;;10.98;;
4430;SDS011;2228;48.140;11.488;2023-05-23T01:05:43;15.23;;;11.13;;
4430;SDS011;2228;48.140;11.488;2023-05-23T01:08:10;14.40;;;11.23;;
4430;SDS011;2228;48.140;11.488;2023-05-23T01:10:39;14.20;;;10.93;;
4430;SDS011;2228;48.140;11.488;2023-05-23T01:13:09;14.47;;;10.80;;
4430;SDS011;2228;48.140;11.488;2023-05-23T01:15:44;17.30;;;11.23;;
4430;SDS011;2228;48.140;11.488;2023-05-23T01:18:17;13.55;;;10.23;;
4430;SDS011;2228;48.140;11.488;2023-05-23T01:20:52;16.38;;;11.05;;
4430;SDS011;2228;48.140;11.488;2023-05-23T01:26:28;15.20;;;11.40;;
4430;SDS011;2228;48.140;11.488;2023-05-23T01:29:02;15.70;;;12.17;;
4430;SDS011;2228;48.140;11.488;2023-05-23T01:31:35;19.25;;;12.30;;
4430;SDS011;2228;48.140;11.488;2023-05-23T01:34:06;15.32;;;11.82;;
4430;SDS011;2228;48.140;11.488;2023-05-23T01:36:35;15.77;;;11.80;;
4430;SDS011;2228;48.140;11.488;2023-05-23T01:39:06;15.15;;;11.85;;
4430;SDS011;2228;48.140;11.488;2023-05-23T01:41:33;17.55;;;12.07;;
4430;SDS011;2228;48.140;11.488;2023-05-23T01:44:01;19.00;;;12.07;;
4430;SDS011;2228;48.140;11.488;2023-05-23T01:46:29;16.35;;;11.30;;
4430;SDS011;2228;48.140;11.488;2023-05-23T01:48:58;16.20;;;12.30;;
4430;SDS011;2228;48.140;11.488;2023-05-23T01:51:26;14.15;;;11.50;;
4430;SDS011;2228;48.140;11.488;2023-05-23T01:53:54;14.30;;;11.55;;
4430;SDS011;2228;48.140;11.488;2023-05-23T01:56:22;17.90;;;12.25;;
4430;SDS011;2228;48.140;11.488;2023-05-23T01:58:51;17.80;;;12.27;;
4430;SDS011;2228;48.140;11.488;2023-05-23T02:01:19;16.35;;;11.90;;
4430;SDS011;2228;48.140;11.488;2023-05-23T02:03:47;17.65;;;11.88;;
4430;SDS011;2228;48.140;11.488;2023-05-23T02:06:14;17.08;;;12.35;;
4430;SDS011;2228;48.140;11.488;2023-05-23T02:08:41;16.05;;;12.63;;
4430;SDS011;2228;48.140;11.488;2023-05-23T02:11:08;17.65;;;13.15;;
4430;SDS011;2228;48.140;11.488;2023-05-23T02:13:35;17.83;;;12.25;;
4430;SDS011;2228;48.140;11.488;2023-05-23T02:16:02;15.73;;;11.75;;
4430;SDS011;2228;48.140;11.488;2023-05-23T02:18:30;16.67;;;11.85;;
4430;SDS011;2228;48.140;11.488;2023-05-23T02:20:57;17.95;;;12.20;;
4430;SDS011;2228;48.140;11.488;2023-05-23T02:23:24;17.40;;;12.50;;
4430;SDS011;2228;48.140;11.488;2023-05-23T02:25:51;20.50;;;12.33;;
4430;SDS011;2228;48.140;11.488;2023-05-23T02:28:18;16.98;;;12.57;;
4430;SDS011;2228;48.140;11.488;2023-05-23T02:30:45;17.10;;;12.85;;
4430;SDS011;2228;48.140;11.488;2023-05-23T02:33:12;19.05;;;13.93;;
4430;SDS011;2228;48.140;11.488;2023-05-23T02:35:42;17.75;;;12.95;;
4430;SDS011;2228;48.140;11.488;2023-05-23T02:38:09;20.63;;;14.15;;
4430;SDS011;2228;48.140;11.488;2023-05-23T02:40:36;18.50;;;13.10;;
4430;SDS011;2228;48.140;11.488;2023-05-23T02:43:03;22.30;;;14.05;;
4430;SDS011;2228;48.140;11.488;2023-05-23T02:45:30;19.45;;;13.70;;
4430;SDS011;2228;48.140;11.488;2023-05-23T02:47:57;19.70;;;13.85;;
4430;SDS011;2228;48.140;11.488;2023-05-23T02:50:23;21.27;;;13.85;;
4430;SDS011;2228;48.140;11.488;2023-05-23T02:52:52;17.98;;;13.98;;
4430;SDS011;2228;48.140;11.488;2023-05-23T02:55:19;16.95;;;13.40;;
4430;SDS011;2228;48.140;11.488;2023-05-23T02:57:46;18.95;;;14.20;;
4430;SDS011;2228;48.140;11.488;2023-05-23T03:00:13;20.30;;;14.23;;
4430;SDS011;2228;48.140;11.488;2023-05-23T03:02:41;20.90;;;15.38;;
4430;SDS011;2228;48.140;11.488;2023-05-23T03:05:08;22.52;;;15.20;;
4430;SDS011;2228;48.140;11.488;2023-05-23T03:07:35;19.77;;;14.50;;
4430;SDS011;2228;48.140;11.488;2023-05-23T03:10:04;20.55;;;13.93;;
4430;SDS011;2228;48.140;11.488;2023-05-23T03:12:32;25.85;;;15.70;;
4430;SDS011;2228;48.140;11.488;2023-05-23T03:14:59;22.52;;;14.40;;
4430;SDS011;2228;48.140;11.488;2023-05-23T03:17:26;23.92;;;15.77;;
4430;SDS011;2228;48.140;11.488;2023-05-23T03:19:53;26.95;;;16.70;;
4430;SDS011;2228;48.140;11.488;2023-05-23T03:22:20;21.77;;;15.85;;
4430;SDS011;2228;48.140;11.488;2023-05-23T03:24:47;21.35;;;16.10;;
4430;SDS011;2228;48.140;11.488;2023-05-23T03:27:15;23.92;;;16.15;;
4430;SDS011;2228;48.140;11.488;2023-05-23T03:29:42;23.70;;;16.65;;
4430;SDS011;2228;48.140;11.488;2023-05-23T03:32:09;23.55;;;17.48;;
4430;SDS011;2228;48.140;11.488;2023-05-23T03:34:36;20.60;;;15.85;;
4430;SDS011;2228;48.140;11.488;2023-05-23T03:37:03;22.05;;;15.70;;
4430;SDS011;2228;48.140;11.488;2023-05-23T03:39:31;24.40;;;17.88;;
4430;SDS011;2228;48.140;11.488;2023-05-23T03:41:57;23.20;;;17.30;;
4430;SDS011;2228;48.140;11.488;2023-05-23T03:44:26;25.33;;;18.05;;
4430;SDS011;2228;48.140;11.488;2023-05-23T03:46:53;24.33;;;17.50;;
4430;SDS011;2228;48.140;11.488;2023-05-23T03:49:19;25.23;;;17.60;;
4430;SDS011;2228;48.140;11.488;2023-05-23T03:51:46;23.90;;;17.40;;
4430;SDS011;2228;48.140;11.488;2023-05-23T03:54:13;27.35;;;18.35;;
4430;SDS011;2228;48.140;11.488;2023-05-23T03:56:41;26.73;;;17.40;;
4430;SDS011;2228;48.140;11.488;2023-05-23T03:59:08;22.85;;;17.00;;
4430;SDS011;2228;48.140;11.488;2023-05-23T04:01:37;24.35;;;17.20;;
4430;SDS011;2228;48.140;11.488;2023-05-23T04:04:05;22.95;;;17.20;;
4430;SDS011;2228;48.140;11.488;2023-05-23T04:06:32;23.63;;;16.45;;
4430;SDS011;2228;48.140;11.488;2023-05-23T04:08:59;21.27;;;16.27;;
4430;SDS011;2228;48.140;11.488;2023-05-23T04:11:26;21.55;;;17.00;;
4430;SDS011;2228;48.140;11.488;2023-05-23T04:13:54;27.20;;;17.80;;
4430;SDS011;2228;48.140;11.488;2023-05-23T04:16:21;25.08;;;18.85;;
4430;SDS011;2228;48.140;11.488;2023-05-23T04:18:49;23.77;;;17.80;;
4430;SDS011;2228;48.140;11.488;2023-05-23T04:21:16;26.13;;;18.30;;
4430;SDS011;2228;48.140;11.488;2023-05-23T04:23:43;27.05;;;18.98;;
4430;SDS011;2228;48.140;11.488;2023-05-23T04:26:10;25.83;;;18.30;;
4430;SDS011;2228;48.140;11.488;2023-05-23T04:28:37;25.20;;;18.02;;
4430;SDS011;2228;48.140;11.488;2023-05-23T04:31:04;26.95;;;19.48;;
4430;SDS011;2228;48.140;11.488;2023-05-23T04:33:31;24.95;;;18.05;;
4430;SDS011;2228;48.140;11.488;2023-05-23T04:35:59;25.92;;;19.00;;
4430;SDS011;2228;48.140;11.488;2023-05-23T04:38:26;24.75;;;18.13;;
4430;SDS011;2228;48.140;11.488;2023-05-23T04:40:53;28.65;;;18.17;;
4430;SDS011;2228;48.140;11.488;2023-05-23T04:43:21;26.13;;;19.40;;
4430;SDS011;2228;48.140;11.488;2023-05-23T04:45:51;27.27;;;18.30;;
4430;SDS011;2228;48.140;11.488;2023-05-23T04:48:18;27.47;;;19.13;;
4430;SDS011;2228;48.140;11.488;2023-05-23T04:50:47;29.70;;;20.33;;
4430;SDS011;2228;48.140;11.488;2023-05-23T04:53:16;32.08;;;20.02;;
4430;SDS011;2228;48.140;11.488;2023-05-23T04:55:43;26.95;;;18.80;;
4430;SDS011;2228;48.140;11.488;2023-05-23T04:58:11;26.88;;;18.63;;
4430;SDS011;2228;48.140;11.488;2023-05-23T05:00:38;27.65;;;18.35;;
4430;SDS011;2228;48.140;11.488;2023-05-23T05:03:05;22.88;;;17.02;;
4430;SDS011;2228;48.140;11.488;2023-05-23T05:05:33;24.95;;;18.30;;
4430;SDS011;2228;48.140;11.488;2023-05-23T05:08:02;24.40;;;17.50;;
4430;SDS011;2228;48.140;11.488;2023-05-23T05:10:34;23.75;;;17.42;;
4430;SDS011;2228;48.140;11.488;2023-05-23T05:13:01;23.20;;;18.13;;
4430;SDS011;2228;48.140;11.488;2023-05-23T05:15:28;22.05;;;16.48;;
4430;SDS011;2228;48.140;11.488;2023-05-23T05:17:55;24.52;;;17.00;;
4430;SDS011;2228;48.140;11.488;2023-05-23T05:20:22;25.25;;;17.48;;
4430;SDS011;2228;48.140;11.488;2023-05-23T05:22:54;29.02;;;17.60;;
4430;SDS011;2228;48.140;11.488;2023-05-23T05:25:22;24.05;;;16.40;;
4430;SDS011;2228;48.140;11.488;2023-05-23T05:27:52;25.70;;;17.08;;
4430;SDS011;2228;48.140;11.488;2023-05-23T05:30:19;22.52;;;16.45;;
4430;SDS011;2228;48.140;11.488;2023-05-23T05:32:47;22.95;;;17.48;;
4430;SDS011;2228;48.140;11.488;2023-05-23T05:35:15;25.17;;;16.67;;
4430;SDS011;2228;48.140;11.488;2023-05-23T05:37:42;22.15;;;16.30;;
4430;SDS011;2228;48.140;11.488;2023-05-23T05:40:09;23.20;;;17.40;;
4430;SDS011;2228;48.140;11.488;2023-05-23T05:42:36;21.98;;;16.73;;
4430;SDS011;2228;48.140;11.488;2023-05-23T05:45:05;21.65;;;15.80;;
4430;SDS011;2228;48.140;11.488;2023-05-23T05:47:33;21.90;;;16.37;;
4430;SDS011;2228;48.140;11.488;2023-05-23T05:50:01;21.73;;;16.42;;
4430;SDS011;2228;48.140;11.488;2023-05-23T05:52:28;24.37;;;16.87;;
4430;SDS011;2228;48.140;11.488;2023-05-23T05:54:55;20.65;;;15.82;;
4430;SDS011;2228;48.140;11.488;2023-05-23T05:57:22;24.05;;;16.42;;
4430;SDS011;2228;48.140;11.488;2023-05-23T05:59:49;22.77;;;16.20;;
4430;SDS011;2228;48.140;11.488;2023-05-23T06:02:18;24.92;;;16.60;;
4430;SDS011;2228;48.140;11.488;2023-05-23T06:04:45;22.95;;;15.60;;
4430;SDS011;2228;48.140;11.488;2023-05-23T06:07:11;22.27;;;16.58;;
4430;SDS011;2228;48.140;11.488;2023-05-23T06:09:38;24.50;;;16.00;;
4430;SDS011;2228;48.140;11.488;2023-05-23T06:12:05;24.15;;;16.70;;
4430;SDS011;2228;48.140;11.488;2023-05-23T06:14:33;23.10;;;16.80;;
4430;SDS011;2228;48.140;11.488;2023-05-23T06:17:00;27.10;;;17.63;;
4430;SDS011;2228;48.140;11.488;2023-05-23T06:19:29;24.33;;;17.20;;
4430;SDS011;2228;48.140;11.488;2023-05-23T06:21:56;24.60;;;16.92;;
4430;SDS011;2228;48.140;11.488;2023-05-23T06:24:23;26.30;;;18.10;;
4430;SDS011;2228;48.140;11.488;2023-05-23T06:26:50;25.10;;;17.97;;
4430;SDS011;2228;48.140;11.488;2023-05-23T06:29:16;25.70;;;17.83;;
4430;SDS011;2228;48.140;11.488;2023-05-23T06:31:43;25.55;;;17.45;;
4430;SDS011;2228;48.140;11.488;2023-05-23T06:34:10;24.98;;;17.67;;
4430;SDS011;2228;48.140;11.488;2023-05-23T06:36:38;28.17;;;18.83;;
4430;SDS011;2228;48.140;11.488;2023-05-23T06:39:07;29.80;;;18.50;;
4430;SDS011;2228;48.140;11.488;2023-05-23T06:41:34;23.83;;;17.35;;
4430;SDS011;2228;48.140;11.488;2023-05-23T06:44:01;26.88;;;18.85;;
4430;SDS011;2228;48.140;11.488;2023-05-23T06:46:28;27.10;;;17.27;;
4430;SDS011;2228;48.140;11.488;2023-05-23T06:48:55;26.75;;;18.50;;
4430;SDS011;2228;48.140;11.488;2023-05-23T06:51:21;30.92;;;19.60;;
4430;SDS011;2228;48.140;11.488;2023-05-23T06:53:50;25.75;;;18.05;;
4430;SDS011;2228;48.140;11.488;2023-05-23T06:56:17;24.65;;;18.17;;
4430;SDS011;2228;48.140;11.488;2023-05-23T06:58:44;28.10;;;18.50;;
4430;SDS011;2228;48.140;11.488;2023-05-23T07:01:11;26.55;;;17.98;;
4430;SDS011;2228;48.140;11.488;2023-05-23T07:03:38;27.83;;;19.80;;
4430;SDS011;2228;48.140;11.488;2023-05-23T07:06:05;29.83;;;19.52;;
4430;SDS011;2228;48.140;11.488;2023-05-23T07:08:33;27.08;;;18.45;;
4430;SDS011;2228;48.140;11.488;2023-05-23T07:11:01;27.30;;;18.47;;
4430;SDS011;2228;48.140;11.488;2023-05-23T07:13:28;25.20;;;19.20;;
4430;SDS011;2228;48.140;11.488;2023-05-23T07:15:55;27.38;;;19.48;;
4430;SDS011;2228;48.140;11.488;2023-05-23T07:18:22;27.83;;;18.92;;
4430;SDS011;2228;48.140;11.488;2023-05-23T07:20:49;26.77;;;17.63;;
4430;SDS011;2228;48.140;11.488;2023-05-23T07:23:16;24.10;;;18.08;;
4430;SDS011;2228;48.140;11.488;2023-05-23T07:25:43;26.05;;;17.63;;
4430;SDS011;2228;48.140;11.488;2023-05-23T07:28:12;28.10;;;19.73;;
4430;SDS011;2228;48.140;11.488;2023-05-23T07:30:40;26.08;;;18.90;;
4430;SDS011;2228;48.140;11.488;2023-05-23T07:33:07;28.38;;;19.50;;
4430;SDS011;2228;48.140;11.488;2023-05-23T07:35:34;26.90;;;20.45;;
4430;SDS011;2228;48.140;11.488;2023-05-23T07:38:01;28.30;;;21.25;;
4430;SDS011;2228;48.140;11.488;2023-05-23T07:40:28;28.35;;;20.23;;
4430;SDS011;2228;48.140;11.488;2023-05-23T07:42:55;26.70;;;19.80;;
4430;SDS011;2228;48.140;11.488;2023-05-23T07:45:25;29.33;;;19.55;;
4430;SDS011;2228;48.140;11.488;2023-05-23T07:47:52;28.90;;;20.50;;
4430;SDS011;2228;48.140;11.488;2023-05-23T07:50:19;27.92;;;19.88;;
4430;SDS011;2228;48.140;11.488;2023-05-23T07:52:46;27.85;;;20.60;;
4430;SDS011;2228;48.140;11.488;2023-05-23T07:55:15;28.98;;;19.83;;
4430;SDS011;2228;48.140;11.488;2023-05-23T07:57:43;26.60;;;19.92;;
4430;SDS011;2228;48.140;11.488;2023-05-23T08:00:10;28.88;;;19.65;;
4430;SDS011;2228;48.140;11.488;2023-05-23T08:02:40;30.13;;;20.93;;
4430;SDS011;2228;48.140;11.488;2023-05-23T08:05:07;29.00;;;20.02;;
4430;SDS011;2228;48.140;11.488;2023-05-23T08:07:35;28.83;;;20.65;;
4430;SDS011;2228;48.140;11.488;2023-05-23T08:10:02;31.75;;;21.48;;
4430;SDS011;2228;48.140;11.488;2023-05-23T08:12:29;28.25;;;19.95;;
4430;SDS011;2228;48.140;11.488;2023-05-23T08:14:56;28.00;;;20.17;;
4430;SDS011;2228;48.140;11.488;2023-05-23T08:17:23;31.17;;;20.65;;
4430;SDS011;2228;48.140;11.488;2023-05-23T08:19:52;31.58;;;20.48;;
4430;SDS011;2228;48.140;11.488;2023-05-23T08:22:19;30.05;;;20.35;;
4430;SDS011;2228;48.140;11.488;2023-05-23T08:24:46;29.70;;;20.13;;
4430;SDS011;2228;48.140;11.488;2023-05-23T08:27:13;27.48;;;19.25;;
4430;SDS011;2228;48.140;11.488;2023-05-23T08:29:40;29.00;;;19.60;;
4430;SDS011;2228;48.140;11.488;2023-05-23T08:32:08;29.90;;;20.90;;
4430;SDS011;2228;48.140;11.488;2023-05-23T08:34:35;29.27;;;20.08;;
4430;SDS011;2228;48.140;11.488;2023-05-23T08:37:03;27.52;;;20.25;;
4430;SDS011;2228;48.140;11.488;2023-05-23T08:39:31;31.98;;;21.45;;
4430;SDS011;2228;48.140;11.488;2023-05-23T08:42:02;31.88;;;20.70;;
4430;SDS011;2228;48.140;11.488;2023-05-23T08:44:31;31.08;;;21.33;;
4430;SDS011;2228;48.140;11.488;2023-05-23T08:46:59;31.00;;;20.95;;
4430;SDS011;2228;48.140;11.488;2023-05-23T08:49:30;32.95;;;20.80;;
4430;SDS011;2228;48.140;11.488;2023-05-23T08:51:59;29.30;;;19.67;;
4430;SDS011;2228;48.140;11.488;2023-05-23T08:54:29;31.75;;;20.10;;
4430;SDS011;2228;48.140;11.488;2023-05-23T08:56:56;27.42;;;20.20;;
4430;SDS011;2228;48.140;11.488;2023-05-23T08:59:24;27.90;;;19.58;;
4430;SDS011;2228;48.140;11.488;2023-05-23T09:01:52;27.35;;;20.30;;
4430;SDS011;2228;48.140;11.488;2023-05-23T09:04:22;27.23;;;19.80;;
4430;SDS011;2228;48.140;11.488;2023-05-23T09:06:49;28.45;;;20.33;;
4430;SDS011;2228;48.140;11.488;2023-05-23T09:09:16;27.75;;;19.70;;
4430;SDS011;2228;48.140;11.488;2023-05-23T09:11:45;29.02;;;18.80;;
4430;SDS011;2228;48.140;11.488;2023-05-23T09:14:12;26.05;;;19.55;;
4430;SDS011;2228;48.140;11.488;2023-05-23T09:16:42;26.45;;;18.30;;
4430;SDS011;2228;48.140;11.488;2023-05-23T09:19:12;26.58;;;18.80;;
4430;SDS011;2228;48.140;11.488;2023-05-23T09:21:43;28.55;;;20.55;;
4430;SDS011;2228;48.140;11.488;2023-05-23T09:24:11;30.13;;;21.17;;
4430;SDS011;2228;48.140;11.488;2023-05-23T09:26:47;30.73;;;21.33;;
4430;SDS011;2228;48.140;11.488;2023-05-23T09:29:16;29.33;;;21.15;;
4430;SDS011;2228;48.140;11.488;2023-05-23T09:31:46;28.15;;;21.15;;
4430;SDS011;2228;48.140;11.488;2023-05-23T09:34:13;35.25;;;21.95;;
4430;SDS011;2228;48.140;11.488;2023-05-23T09:36:40;32.60;;;21.90;;
4430;SDS011;2228;48.140;11.488;2023-05-23T09:39:08;34.25;;;23.02;;
4430;SDS011;2228;48.140;11.488;2023-05-23T09:41:37;30.30;;;22.83;;
4430;SDS011;2228;48.140;11.488;2023-05-23T09:44:06;33.67;;;23.60;;
4430;SDS011;2228;48.140;11.488;2023-05-23T09:46:34;36.42;;;23.10;;
4430;SDS011;2228;48.140;11.488;2023-05-23T09:49:03;35.17;;;23.35;;
4430;SDS011;2228;48.140;11.488;2023-05-23T09:51:41;33.97;;;22.45;;
4430;SDS011;2228;48.140;11.488;2023-05-23T09:54:08;32.30;;;23.00;;
4430;SDS011;2228;48.140;11.488;2023-05-23T09:56:35;32.88;;;23.58;;
4430;SDS011;2228;48.140;11.488;2023-05-23T09:59:09;30.67;;;23.33;;
4430;SDS011;2228;48.140;11.488;2023-05-23T10:01:39;32.67;;;23.27;;
4430;SDS011;2228;48.140;11.488;2023-05-23T10:04:07;32.50;;;23.20;;
4430;SDS011;2228;48.140;11.488;2023-05-23T10:06:36;34.43;;;23.10;;
4430;SDS011;2228;48.140;11.488;2023-05-23T10:09:08;33.35;;;21.88;;
4430;SDS011;2228;48.140;11.488;2023-05-23T10:14:39;32.85;;;22.42;;
4430;SDS011;2228;48.140;11.488;2023-05-23T10:17:10;33.95;;;23.77;;
4430;SDS011;2228;48.140;11.488;2023-05-23T10:19:42;32.87;;;22.63;;
4430;SDS011;2228;48.140;11.488;2023-05-23T10:22:12;33.43;;;23.80;;
4430;SDS011;2228;48.140;11.488;2023-05-23T10:24:40;35.10;;;23.35;;
4430;SDS011;2228;48.140;11.488;2023-05-23T10:27:10;31.98;;;23.13;;
4430;SDS011;2228;48.140;11.488;2023-05-23T10:29:38;32.65;;;23.63;;
4430;SDS011;2228;48.140;11.488;2023-05-23T10:32:05;32.80;;;22.58;;
4430;SDS011;2228;48.140;11.488;2023-05-23T10:34:34;36.20;;;22.90;;
4430;SDS011;2228;48.140;11.488;2023-05-23T10:37:06;33.50;;;22.33;;
4430;SDS011;2228;48.140;11.488;2023-05-23T10:39:39;32.67;;;22.07;;
4430;SDS011;2228;48.140;11.488;2023-05-23T10:42:18;31.83;;;21.83;;
4430;SDS011;2228;48.140;11.488;2023-05-23T10:44:51;27.02;;;20.73;;
4430;SDS011;2228;48.140;11.488;2023-05-23T10:47:24;27.98;;;20.60;;
4430;SDS011;2228;48.140;11.488;2023-05-23T10:49:53;29.10;;;20.10;;
4430;SDS011;2228;48.140;11.488;2023-05-23T10:52:22;22.73;;;17.75;;
4430;SDS011;2228;48.140;11.488;2023-05-23T10:54:51;24.15;;;19.30;;
4430;SDS011;2228;48.140;11.488;2023-05-23T10:57:19;23.48;;;17.95;;
4430;SDS011;2228;48.140;11.488;2023-05-23T10:59:48;25.13;;;17.55;;
4430;SDS011;2228;48.140;11.488;2023-05-23T11:02:21;26.05;;;17.67;;
4430;SDS011;2228;48.140;11.488;2023-05-23T11:08:05;22.40;;;16.00;;
4430;SDS011;2228;48.140;11.488;2023-05-23T11:13:21;20.13;;;15.70;;
4430;SDS011;2228;48.140;11.488;2023-05-23T11:15:50;20.48;;;15.93;;
4430;SDS011;2228;48.140;11.488;2023-05-23T11:18:22;21.17;;;14.80;;
4430;SDS011;2228;48.140;11.488;2023-05-23T11:23:19;18.40;;;14.07;;
4430;SDS011;2228;48.140;11.488;2023-05-23T11:25:47;18.10;;;13.95;;
4430;SDS011;2228;48.140;11.488;2023-05-23T11:28:16;14.87;;;12.40;;
4430;SDS011;2228;48.140;11.488;2023-05-23T11:30:45;15.35;;;12.75;;
4430;SDS011;2228;48.140;11.488;2023-05-23T11:33:14;15.45;;;13.18;;
4430;SDS011;2228;48.140;11.488;2023-05-23T11:35:44;19.20;;;14.60;;
4430;SDS011;2228;48.140;11.488;2023-05-23T11:38:13;18.33;;;14.60;;
4430;SDS011;2228;48.140;11.488;2023-05-23T11:40:41;19.73;;;13.57;;
4430;SDS011;2228;48.140;11.488;2023-05-23T11:43:09;16.98;;;12.82;;
4430;SDS011;2228;48.140;11.488;2023-05-23T11:45:37;18.38;;;14.10;;
4430;SDS011;2228;48.140;11.488;2023-05-23T11:48:05;17.48;;;14.10;;
4430;SDS011;2228;48.140;11.488;2023-05-23T11:50:33;17.10;;;14.75;;
4430;SDS011;2228;48.140;11.488;2023-05-23T11:53:09;17.35;;;14.40;;
4430;SDS011;2228;48.140;11.488;2023-05-23T11:55:38;18.83;;;14.52;;
4430;SDS011;2228;48.140;11.488;2023-05-23T11:58:05;22.30;;;16.58;;
4430;SDS011;2228;48.140;11.488;2023-05-23T12:00:33;19.60;;;14.40;;
4430;SDS011;2228;48.140;11.488;2023-05-23T12:03:02;21.10;;;16.17;;
4430;SDS011;2228;48.140;11.488;2023-05-23T12:05:33;19.73;;;15.10;;
4430;SDS011;2228;48.140;11.488;2023-05-23T12:08:00;20.70;;;15.00;;
4430;SDS011;2228;48.140;11.488;2023-05-23T12:10:28;21.38;;;15.55;;
4430;SDS011;2228;48.140;11.488;2023-05-23T12:12:55;21.00;;;15.57;;
4430;SDS011;2228;48.140;11.488;2023-05-23T12:15:24;21.58;;;14.32;;
4430;SDS011;2228;48.140;11.488;2023-05-23T12:17:52;16.52;;;13.40;;
4430;SDS011;2228;48.140;11.488;2023-05-23T12:20:20;18.05;;;13.00;;
4430;SDS011;2228;48.140;11.488;2023-05-23T12:22:47;17.85;;;13.50;;
4430;SDS011;2228;48.140;11.488;2023-05-23T12:25:14;19.35;;;13.38;;
4430;SDS011;2228;48.140;11.488;2023-05-23T12:27:44;17.40;;;14.75;;
4430;SDS011;2228;48.140;11.488;2023-05-23T12:30:14;20.37;;;14.13;;
4430;SDS011;2228;48.140;11.488;2023-05-23T12:32:42;20.40;;;14.35;;
4430;SDS011;2228;48.140;11.488;2023-05-23T12:35:10;22.40;;;16.15;;
4430;SDS011;2228;48.140;11.488;2023-05-23T12:37:38;20.45;;;16.45;;
4430;SDS011;2228;48.140;11.488;2023-05-23T12:40:11;23.33;;;17.77;;
4430;SDS011;2228;48.140;11.488;2023-05-23T12:42:45;25.60;;;16.80;;
4430;SDS011;2228;48.140;11.488;2023-05-23T12:45:15;21.33;;;14.70;;
4430;SDS011;2228;48.140;11.488;2023-05-23T12:47:42;15.93;;;13.20;;
4430;SDS011;2228;48.140;11.488;2023-05-23T12:50:09;17.52;;;12.60;;
4430;SDS011;2228;48.140;11.488;2023-05-23T12:52:37;17.17;;;13.07;;
4430;SDS011;2228;48.140;11.488;2023-05-23T12:55:05;13.93;;;10.90;;
4430;SDS011;2228;48.140;11.488;2023-05-23T12:57:33;16.42;;;11.32;;
4430;SDS011;2228;48.140;11.488;2023-05-23T13:00:02;15.02;;;10.63;;
4430;SDS011;2228;48.140;11.488;2023-05-23T13:02:30;12.45;;;10.88;;
4430;SDS011;2228;48.140;11.488;2023-05-23T13:04:57;13.15;;;11.15;;
4430;SDS011;2228;48.140;11.488;2023-05-23T13:07:24;11.60;;;10.20;;
4430;SDS011;2228;48.140;11.488;2023-05-23T13:09:51;12.80;;;10.88;;
4430;SDS011;2228;48.140;11.488;2023-05-23T13:12:18;16.23;;;11.27;;
4430;SDS011;2228;48.140;11.488;2023-05-23T13:14:45;12.98;;;10.93;;
4430;SDS011;2228;48.140;11.488;2023-05-23T13:17:14;14.40;;;11.40;;
4430;SDS011;2228;48.140;11.488;2023-05-23T13:19:41;17.70;;;11.57;;
4430;SDS011;2228;48.140;11.488;2023-05-23T13:22:08;16.42;;;10.98;;
4430;SDS011;2228;48.140;11.488;2023-05-23T13:24:35;12.13;;;10.55;;
4430;SDS011;2228;48.140;11.488;2023-05-23T13:27:02;14.90;;;11.93;;
4430;SDS011;2228;48.140;11.488;2023-05-23T13:29:30;14.93;;;11.88;;
4430;SDS011;2228;48.140;11.488;2023-05-23T13:31:57;18.40;;;12.65;;
4430;SDS011;2228;48.140;11.488;2023-05-23T13:34:25;14.45;;;11.90;;
4430;SDS011;2228;48.140;11.488;2023-05-23T13:36:53;15.23;;;12.85;;
4430;SDS011;2228;48.140;11.488;2023-05-23T13:39:20;13.60;;;10.97;;
4430;SDS011;2228;48.140;11.488;2023-05-23T13:41:47;14.80;;;11.80;;
4430;SDS011;2228;48.140;11.488;2023-05-23T13:44:14;15.93;;;11.35;;
4430;SDS011;2228;48.140;11.488;2023-05-23T13:46:41;17.15;;;13.00;;
4430;SDS011;2228;48.140;11.488;2023-05-23T13:49:09;16.15;;;12.27;;
4430;SDS011;2228;48.140;11.488;2023-05-23T13:51:37;15.93;;;12.37;;
4430;SDS011;2228;48.140;11.488;2023-05-23T13:54:05;12.55;;;10.75;;
4430;SDS011;2228;48.140;11.488;2023-05-23T13:56:32;15.20;;;11.18;;
4430;SDS011;2228;48.140;11.488;2023-05-23T13:59:00;12.95;;;11.65;;
4430;SDS011;2228;48.140;11.488;2023-05-23T14:01:27;12.52;;;10.80;;
4430;SDS011;2228;48.140;11.488;2023-05-23T14:03:54;16.85;;;10.70;;
4430;SDS011;2228;48.140;11.488;2023-05-23T14:06:21;14.85;;;11.50;;
4430;SDS011;2228;48.140;11.488;2023-05-23T14:08:49;14.20;;;10.70;;
4430;SDS011;2228;48.140;11.488;2023-05-23T14:11:16;14.17;;;10.87;;
4430;SDS011;2228;48.140;11.488;2023-05-23T14:13:43;13.73;;;10.35;;
4430;SDS011;2228;48.140;11.488;2023-05-23T14:16:10;14.70;;;10.50;;
4430;SDS011;2228;48.140;11.488;2023-05-23T14:18:37;13.40;;;10.07;;
4430;SDS011;2228;48.140;11.488;2023-05-23T14:21:04;14.67;;;10.50;;
4430;SDS011;2228;48.140;11.488;2023-05-23T14:23:31;13.55;;;11.20;;
4430;SDS011;2228;48.140;11.488;2023-05-23T14:25:59;11.40;;;9.93;;
4430;SDS011;2228;48.140;11.488;2023-05-23T14:28:26;16.45;;;11.20;;
4430;SDS011;2228;48.140;11.488;2023-05-23T14:30:54;13.03;;;10.80;;
4430;SDS011;2228;48.140;11.488;2023-05-23T14:33:21;12.70;;;10.68;;
4430;SDS011;2228;48.140;11.488;2023-05-23T14:35:48;14.68;;;11.82;;
4430;SDS011;2228;48.140;11.488;2023-05-23T14:38:15;22.10;;;12.30;;
4430;SDS011;2228;48.140;11.488;2023-05-23T14:40:42;13.18;;;11.00;;
4430;SDS011;2228;48.140;11.488;2023-05-23T14:43:11;17.83;;;11.15;;
4430;SDS011;2228;48.140;11.488;2023-05-23T14:45:38;15.70;;;11.63;;
4430;SDS011;2228;48.140;11.488;2023-05-23T14:48:05;14.95;;;11.15;;
4430;SDS011;2228;48.140;11.488;2023-05-23T14:50:32;13.55;;;10.63;;
4430;SDS011;2228;48.140;11.488;2023-05-23T14:53:00;14.77;;;10.30;;